This is the latest recevied weather packets stored in our database for station/object FRA485-13. If no packets are shown the sender has not sent any weather packets the latest 1 day(s).
| Time | Temp. | Humidity | Pressure | Rain* | Wind** | Luminosity | Snow |
|---|---|---|---|---|---|---|---|
| 1778192769 | 11.11° C | 79% | 101.6 hPa | 0 mm | - | - | - |
| 1778191269 | 11.11° C | 75% | 101.6 hPa | 0 mm | - | - | - |
| 1778189769 | 11.11° C | 75% | 101.6 hPa | 0 mm | - | - | - |
| 1778188269 | 11.67° C | 77% | 101.6 hPa | 0 mm | - | - | - |
| 1778186769 | 11.67° C | 74% | 101.6 hPa | 0 mm | - | - | - |
| 1778185269 | 12.22° C | 76% | 101.6 hPa | 0 mm | - | - | - |
| 1778183768 | 12.22° C | 74% | 101.6 hPa | 0 mm | - | - | - |
| 1778182268 | 12.22° C | 73% | 101.6 hPa | 0 mm | - | - | - |
| 1778180768 | 12.78° C | 73% | 101.5 hPa | 0 mm | - | - | - |
| 1778179268 | 12.78° C | 71% | 101.5 hPa | 0 mm | - | - | - |
| 1778177768 | 13.33° C | 69% | 101.5 hPa | 0 mm | - | - | - |
| 1778176268 | 13.33° C | 69% | 101.5 hPa | 0 mm | - | - | - |
| 1778174769 | 13.89° C | 67% | 101.5 hPa | 0 mm | - | - | - |
| 1778173268 | 13.89° C | 66% | 101.5 hPa | 0 mm | - | - | - |
| 1778171768 | 13.89° C | 65% | 101.5 hPa | 0 mm | - | - | - |
| 1778170268 | 14.44° C | 66% | 101.6 hPa | 0 mm | - | - | - |
| 1778168768 | 14.44° C | 63% | 101.5 hPa | 0 mm | - | - | - |
| 1778167268 | 14.44° C | 65% | 101.6 hPa | 0 mm | - | - | - |
| 1778165768 | 13.89° C | 60% | 101.5 hPa | 0 mm | - | - | - |
| 1778164268 | 13.89° C | 60% | 101.5 hPa | 0 mm | - | - | - |
| 1778162767 | 13.89° C | 65% | 101.6 hPa | 0 mm | - | - | - |
| 1778161267 | 13.33° C | 59% | 101.6 hPa | 0 mm | - | - | - |
| 1778159767 | 13.89° C | 64% | 101.6 hPa | 0 mm | - | - | - |
| 1778158267 | 13.89° C | 59% | 101.6 hPa | 0 mm | - | - | - |
| 1778156767 | 13.89° C | 63% | 101.6 hPa | 0 mm | - | - | - |
* Rain latest hour (hover to see other rain measurements)
** Current wind speed in m/s (hover to see current wind gust speed)